createdAt,value
2022-12-07T00:00:12.648Z,23.24
2022-12-07T00:01:12.607Z,23.25
2022-12-07T00:04:12.610Z,25.07
2022-12-07T00:05:12.688Z,24.19
2022-12-07T00:07:12.628Z,25.13
2022-12-07T00:10:12.627Z,25.47
2022-12-07T00:14:12.635Z,25.58
2022-12-07T00:15:12.672Z,25.05
2022-12-07T00:17:12.704Z,24.45
2022-12-07T00:22:12.734Z,23.63
2022-12-07T00:23:12.734Z,24.42
2022-12-07T00:25:12.669Z,23.32
2022-12-07T00:28:12.737Z,24.00
2022-12-07T00:29:12.713Z,25.31
2022-12-07T00:31:12.719Z,23.67
2022-12-07T00:32:12.750Z,22.93
2022-12-07T00:33:12.721Z,23.33
2022-12-07T00:34:12.691Z,24.25
2022-12-07T00:35:12.716Z,24.51
2022-12-07T00:37:12.719Z,23.44
2022-12-07T00:39:12.699Z,24.11
2022-12-07T00:41:12.777Z,24.52
2022-12-07T00:42:12.755Z,25.56
2022-12-07T00:44:12.753Z,25.79
2022-12-07T00:45:14.046Z,24.63
2022-12-07T00:47:12.720Z,25.21
2022-12-07T00:48:12.752Z,24.56
2022-12-07T00:51:12.784Z,24.12
2022-12-07T00:53:12.750Z,23.98
2022-12-07T00:54:12.771Z,23.95
2022-12-07T00:57:12.741Z,24.72
2022-12-07T00:59:12.822Z,24.43
2022-12-07T01:00:12.762Z,24.62
2022-12-07T01:01:12.912Z,24.44
2022-12-07T01:02:12.753Z,25.37
2022-12-07T01:03:12.834Z,23.91
2022-12-07T01:04:12.835Z,24.63
2022-12-07T01:05:12.804Z,24.02
2022-12-07T01:06:12.834Z,25.11
2022-12-07T01:07:12.800Z,23.58
2022-12-07T01:09:12.825Z,25.21
2022-12-07T01:10:12.777Z,26.26
2022-12-07T01:13:12.772Z,23.92
2022-12-07T01:14:12.815Z,25.75
2022-12-07T01:15:12.804Z,22.66
2022-12-07T01:16:12.947Z,24.61
2022-12-07T01:17:12.874Z,23.52
2022-12-07T01:20:12.830Z,25.17
2022-12-07T01:21:12.847Z,24.00
2022-12-07T01:22:14.303Z,24.00
2022-12-07T01:23:12.800Z,24.07
2022-12-07T01:25:12.800Z,25.12
2022-12-07T01:26:12.870Z,24.78
2022-12-07T01:27:12.826Z,26.99
2022-12-07T01:28:12.810Z,23.94
2022-12-07T01:29:12.868Z,25.25
2022-12-07T01:30:12.832Z,24.43
2022-12-07T01:32:12.889Z,25.62
2022-12-07T01:33:12.833Z,49.52
2022-12-07T01:34:12.903Z,34.52
2022-12-07T01:35:12.857Z,29.70
2022-12-07T01:36:12.896Z,31.60
2022-12-07T01:38:12.870Z,27.40
2022-12-07T01:39:12.928Z,26.00
2022-12-07T01:40:12.873Z,27.79
2022-12-07T01:42:12.834Z,27.86
2022-12-07T01:43:12.856Z,26.12
2022-12-07T01:44:12.943Z,26.26
2022-12-07T01:45:12.914Z,27.61
2022-12-07T01:48:12.927Z,24.61
2022-12-07T01:49:12.898Z,25.20
2022-12-07T01:50:12.868Z,25.29
2022-12-07T01:52:12.910Z,24.43
2022-12-07T01:54:12.926Z,25.67
2022-12-07T01:56:12.924Z,25.47
2022-12-07T01:58:12.899Z,26.44
2022-12-07T01:59:14.535Z,27.05
2022-12-07T02:00:12.907Z,25.18
2022-12-07T02:01:13.033Z,25.92
2022-12-07T02:02:13.008Z,24.14
2022-12-07T02:04:12.941Z,25.47
2022-12-07T02:05:12.932Z,24.43
2022-12-07T02:06:12.954Z,24.36
2022-12-07T02:07:12.931Z,24.97
2022-12-07T02:08:13.004Z,25.78
2022-12-07T02:09:12.956Z,25.99
2022-12-07T02:10:12.955Z,24.58
2022-12-07T02:11:12.966Z,25.68
2022-12-07T02:12:12.926Z,24.45
2022-12-07T02:13:12.930Z,25.51
2022-12-07T02:14:13.036Z,23.49
2022-12-07T02:15:12.946Z,24.91
2022-12-07T02:18:12.997Z,23.98
2022-12-07T02:19:12.986Z,23.48
2022-12-07T02:20:12.943Z,25.34
2022-12-07T02:21:12.987Z,23.19
2022-12-07T02:23:12.952Z,23.90
2022-12-07T02:24:13.069Z,24.26
2022-12-07T02:25:12.949Z,23.81
2022-12-07T02:26:12.950Z,26.90
2022-12-07T02:27:13.009Z,25.41
2022-12-07T02:28:12.987Z,23.84
2022-12-07T02:29:13.071Z,26.51
2022-12-07T02:30:13.021Z,25.19
2022-12-07T02:31:13.022Z,25.15
2022-12-07T02:32:13.076Z,25.02
2022-12-07T02:33:12.992Z,25.03
2022-12-07T02:35:12.976Z,23.30
2022-12-07T02:36:14.694Z,24.98
2022-12-07T02:37:13.014Z,26.07
2022-12-07T02:38:12.996Z,25.37
2022-12-07T02:40:13.001Z,26.31
2022-12-07T02:42:13.025Z,24.09
2022-12-07T02:43:12.991Z,26.77
2022-12-07T02:44:13.137Z,25.75
2022-12-07T02:45:12.993Z,25.44
2022-12-07T02:47:13.082Z,25.50
2022-12-07T02:51:13.027Z,25.32
2022-12-07T02:53:13.022Z,26.40
2022-12-07T02:55:13.111Z,26.56
2022-12-07T02:56:13.019Z,26.38
2022-12-07T02:57:13.019Z,26.14
2022-12-07T02:58:13.022Z,24.85
2022-12-07T02:59:13.037Z,25.99
2022-12-07T03:00:13.068Z,25.60
2022-12-07T03:01:13.073Z,24.46
2022-12-07T03:02:13.087Z,26.29
2022-12-07T03:03:13.145Z,25.54
2022-12-07T03:04:13.052Z,24.88
2022-12-07T03:05:13.113Z,24.62
2022-12-07T03:08:13.197Z,26.08
2022-12-07T03:09:13.078Z,25.92
2022-12-07T03:10:13.092Z,25.72
2022-12-07T03:12:13.074Z,26.44
2022-12-07T03:13:14.937Z,26.68
2022-12-07T03:14:13.101Z,28.38
2022-12-07T03:16:13.221Z,26.48
2022-12-07T03:18:13.111Z,26.86
2022-12-07T03:19:13.091Z,26.54
2022-12-07T03:20:13.122Z,25.82
2022-12-07T03:21:13.119Z,26.64
2022-12-07T03:22:13.104Z,28.77
2022-12-07T03:23:13.132Z,28.47
2022-12-07T03:24:13.095Z,27.86
2022-12-07T03:25:13.160Z,27.88
2022-12-07T03:26:13.097Z,28.72
2022-12-07T03:27:13.154Z,26.20
2022-12-07T03:30:13.139Z,28.22
2022-12-07T03:31:13.216Z,28.81
2022-12-07T03:32:13.135Z,26.18
2022-12-07T03:34:13.166Z,25.90
2022-12-07T03:36:13.171Z,28.45
2022-12-07T03:37:13.111Z,26.08
2022-12-07T03:38:13.166Z,27.26
2022-12-07T03:39:13.139Z,28.13
2022-12-07T03:40:13.143Z,26.33
2022-12-07T03:41:13.175Z,25.65
2022-12-07T03:44:13.176Z,28.68
2022-12-07T03:46:13.274Z,30.37
2022-12-07T03:48:13.196Z,27.37
2022-12-07T03:49:13.149Z,26.37
2022-12-07T03:50:15.173Z,26.90
2022-12-07T03:51:13.255Z,28.43
2022-12-07T03:52:13.216Z,26.36
2022-12-07T03:53:13.232Z,26.87
2022-12-07T03:54:13.202Z,26.49
2022-12-07T03:56:13.270Z,28.00
2022-12-07T03:58:13.225Z,28.85
2022-12-07T03:59:13.173Z,27.28
2022-12-07T04:01:13.244Z,25.00
2022-12-07T04:02:13.253Z,25.27
2022-12-07T04:03:13.227Z,26.92
2022-12-07T04:04:13.194Z,24.83
2022-12-07T04:06:13.243Z,28.44
2022-12-07T04:07:13.191Z,25.10
2022-12-07T04:08:13.297Z,25.47
2022-12-07T04:09:13.249Z,24.18
2022-12-07T04:10:13.212Z,23.48
2022-12-07T04:12:13.263Z,23.46
2022-12-07T04:14:13.286Z,26.31
2022-12-07T04:15:13.220Z,24.43
2022-12-07T04:16:13.317Z,26.36
2022-12-07T04:17:13.225Z,24.21
2022-12-07T04:18:13.240Z,24.00
2022-12-07T04:21:13.326Z,25.01
2022-12-07T04:25:13.289Z,24.91
2022-12-07T04:26:13.290Z,24.71
2022-12-07T04:27:15.436Z,23.09
2022-12-07T04:28:13.523Z,22.86
2022-12-07T04:30:13.273Z,22.37
2022-12-07T04:31:13.376Z,24.43
2022-12-07T04:32:13.292Z,25.28
2022-12-07T04:33:13.254Z,23.96
2022-12-07T04:34:13.290Z,22.64
2022-12-07T04:35:13.307Z,23.43
2022-12-07T04:36:13.345Z,24.21
2022-12-07T04:37:13.271Z,22.92
2022-12-07T04:38:13.279Z,22.62
2022-12-07T04:39:13.324Z,23.05
2022-12-07T04:40:13.306Z,24.13
2022-12-07T04:41:13.308Z,22.67
2022-12-07T04:43:13.320Z,25.27
2022-12-07T04:44:13.415Z,23.18
2022-12-07T04:45:13.341Z,24.21
2022-12-07T04:47:13.387Z,23.24
2022-12-07T04:49:13.341Z,23.82
2022-12-07T04:50:13.355Z,24.07
2022-12-07T04:52:13.332Z,23.11
2022-12-07T04:53:13.314Z,24.60
2022-12-07T04:54:13.345Z,24.73
2022-12-07T04:55:13.327Z,24.17
2022-12-07T04:57:13.404Z,23.84
2022-12-07T04:58:13.326Z,22.53
2022-12-07T04:59:13.394Z,22.57
2022-12-07T05:01:13.490Z,23.18
2022-12-07T05:02:13.506Z,22.20
2022-12-07T05:03:13.333Z,23.29
2022-12-07T05:04:15.629Z,25.17
2022-12-07T05:05:13.330Z,23.57
2022-12-07T05:06:13.907Z,24.01
2022-12-07T05:07:13.378Z,22.64
2022-12-07T05:08:13.437Z,23.21
2022-12-07T05:09:13.373Z,24.35
2022-12-07T05:10:13.392Z,24.33
2022-12-07T05:11:13.393Z,23.95
2022-12-07T05:13:13.397Z,22.32
2022-12-07T05:15:13.403Z,22.88
2022-12-07T05:18:13.369Z,22.37
2022-12-07T05:20:13.456Z,23.58
2022-12-07T05:21:13.379Z,22.93
2022-12-07T05:22:13.456Z,22.55
2022-12-07T05:25:13.460Z,21.88
2022-12-07T05:27:13.445Z,23.64
2022-12-07T05:28:13.403Z,23.28
2022-12-07T05:29:13.441Z,22.66
2022-12-07T05:32:13.472Z,24.92
2022-12-07T05:33:13.438Z,24.11
2022-12-07T05:34:13.471Z,22.33
2022-12-07T05:35:13.486Z,22.35
2022-12-07T05:36:13.448Z,22.43
2022-12-07T05:37:13.473Z,22.95
2022-12-07T05:38:13.452Z,22.19
2022-12-07T05:39:13.422Z,23.29
2022-12-07T05:40:13.512Z,24.49
2022-12-07T05:41:15.852Z,23.34
2022-12-07T05:42:13.468Z,24.37
2022-12-07T05:43:13.425Z,24.03
2022-12-07T05:45:13.470Z,32.60
2022-12-07T05:46:13.465Z,29.91
2022-12-07T05:47:13.477Z,23.71
2022-12-07T05:49:13.479Z,23.92
2022-12-07T05:51:13.465Z,23.38
2022-12-07T05:52:13.490Z,25.65
2022-12-07T05:53:15.498Z,23.10
2022-12-07T05:55:13.529Z,22.61
2022-12-07T05:57:13.504Z,25.53
2022-12-07T05:58:13.465Z,23.66
2022-12-07T05:59:13.481Z,24.00
2022-12-07T06:00:13.509Z,23.26
2022-12-07T06:01:13.537Z,25.04
2022-12-07T06:02:13.693Z,23.21
2022-12-07T06:04:13.485Z,23.07
2022-12-07T06:05:13.561Z,22.80
2022-12-07T06:06:13.607Z,23.15
2022-12-07T06:09:13.489Z,21.94
2022-12-07T06:10:13.530Z,23.38
2022-12-07T06:11:13.507Z,21.85
2022-12-07T06:12:13.543Z,23.07
2022-12-07T06:13:13.542Z,23.76
2022-12-07T06:16:13.603Z,22.57
2022-12-07T06:17:13.517Z,23.83
2022-12-07T06:19:13.573Z,25.74
2022-12-07T06:22:13.528Z,24.26
2022-12-07T06:25:13.571Z,26.04
2022-12-07T06:26:13.576Z,24.90
2022-12-07T06:27:13.564Z,25.18
2022-12-07T06:28:13.589Z,23.68
2022-12-07T06:29:13.594Z,25.38
2022-12-07T06:30:13.571Z,24.98
2022-12-07T06:31:14.314Z,26.33
2022-12-07T06:34:13.592Z,26.82
2022-12-07T06:35:13.597Z,26.55
2022-12-07T06:36:13.633Z,26.98
2022-12-07T06:37:13.606Z,23.35
2022-12-07T06:39:13.673Z,28.15
2022-12-07T06:40:13.562Z,25.61
2022-12-07T06:42:13.569Z,27.08
2022-12-07T06:43:13.703Z,24.65
2022-12-07T06:44:13.614Z,27.02
2022-12-07T06:45:13.582Z,25.22
2022-12-07T06:46:13.695Z,24.26
2022-12-07T06:47:39.381Z,26.80
2022-12-07T06:48:13.620Z,27.61
2022-12-07T06:49:13.624Z,28.03
2022-12-07T06:51:13.665Z,26.74
2022-12-07T06:52:13.613Z,25.46
2022-12-07T06:53:13.603Z,26.34
2022-12-07T06:54:13.692Z,27.62
2022-12-07T06:55:16.353Z,24.96
2022-12-07T06:56:13.621Z,26.98
2022-12-07T06:57:13.641Z,27.56
2022-12-07T06:59:13.651Z,26.82
2022-12-07T07:01:13.800Z,28.43
2022-12-07T07:02:13.702Z,28.86
2022-12-07T07:03:13.641Z,27.94
2022-12-07T07:05:13.663Z,28.05
2022-12-07T07:06:13.725Z,24.70
2022-12-07T07:07:13.642Z,26.36
2022-12-07T07:09:13.779Z,27.68
2022-12-07T07:10:13.685Z,26.88
2022-12-07T07:12:13.666Z,27.30
2022-12-07T07:13:13.685Z,28.20
2022-12-07T07:15:13.670Z,27.28
2022-12-07T07:16:13.728Z,29.65
2022-12-07T07:17:13.701Z,27.61
2022-12-07T07:19:13.712Z,29.26
2022-12-07T07:20:13.670Z,28.52
2022-12-07T07:21:13.734Z,28.37
2022-12-07T07:24:13.723Z,29.05
2022-12-07T07:25:13.725Z,30.68
2022-12-07T07:26:16.339Z,28.58
2022-12-07T07:27:13.738Z,26.63
2022-12-07T07:30:13.751Z,29.38
2022-12-07T07:31:13.953Z,27.99
2022-12-07T07:32:16.600Z,28.69
2022-12-07T07:33:13.738Z,26.47
2022-12-07T07:34:13.737Z,27.46
2022-12-07T07:37:18.694Z,28.31
2022-12-07T07:39:13.791Z,29.13
2022-12-07T07:40:13.714Z,27.99
2022-12-07T07:42:13.724Z,26.74
2022-12-07T07:44:13.814Z,26.57
2022-12-07T07:45:13.755Z,28.33
2022-12-07T07:46:13.863Z,28.26
2022-12-07T07:47:13.727Z,27.31
2022-12-07T07:48:13.748Z,29.72
2022-12-07T07:49:13.768Z,28.65
2022-12-07T07:50:13.766Z,33.10
2022-12-07T07:51:13.786Z,34.19
2022-12-07T07:52:13.783Z,32.19
2022-12-07T07:53:13.748Z,31.57
2022-12-07T07:54:13.814Z,30.72
2022-12-07T07:55:14.796Z,32.18
2022-12-07T07:56:13.798Z,29.27
2022-12-07T07:57:13.807Z,28.44
2022-12-07T07:58:13.809Z,28.86
2022-12-07T07:59:13.838Z,28.73
2022-12-07T08:00:13.806Z,29.20
2022-12-07T08:02:13.764Z,30.28
2022-12-07T08:03:13.816Z,29.11
2022-12-07T08:04:13.826Z,28.78
2022-12-07T08:05:13.869Z,30.51
2022-12-07T08:06:13.789Z,28.01
2022-12-07T08:07:13.786Z,31.15
2022-12-07T08:08:13.903Z,29.10
2022-12-07T08:09:16.753Z,29.64
2022-12-07T08:10:13.790Z,29.05
2022-12-07T08:11:13.853Z,30.41
2022-12-07T08:12:13.793Z,30.13
2022-12-07T08:13:13.837Z,30.24
2022-12-07T08:14:13.881Z,32.72
2022-12-07T08:15:13.840Z,33.56
2022-12-07T08:18:13.832Z,30.49
2022-12-07T08:19:13.923Z,31.27
2022-12-07T08:20:13.867Z,29.48
2022-12-07T08:21:13.853Z,30.37
2022-12-07T08:24:13.901Z,31.10
2022-12-07T08:25:13.855Z,30.38
2022-12-07T08:26:13.835Z,31.86
2022-12-07T08:27:13.867Z,29.27
2022-12-07T08:28:13.879Z,29.20
2022-12-07T08:32:13.884Z,29.45
2022-12-07T08:33:13.840Z,29.46
2022-12-07T08:35:13.880Z,31.25
2022-12-07T08:37:13.972Z,31.06
2022-12-07T08:38:13.875Z,29.56
2022-12-07T08:41:13.879Z,29.74
2022-12-07T08:43:13.896Z,30.93
2022-12-07T08:44:13.917Z,31.55
2022-12-07T08:45:13.893Z,30.19
2022-12-07T08:46:17.036Z,32.77
2022-12-07T08:47:13.904Z,31.41
2022-12-07T08:48:13.885Z,30.03
2022-12-07T08:49:13.890Z,29.86
2022-12-07T08:50:13.906Z,30.59
2022-12-07T08:52:13.949Z,31.49
2022-12-07T08:53:13.935Z,32.36
2022-12-07T08:56:13.918Z,30.48
2022-12-07T08:57:13.951Z,30.88
2022-12-07T09:00:13.969Z,30.73
2022-12-07T09:01:14.001Z,30.78
2022-12-07T09:02:13.990Z,30.73
2022-12-07T09:03:13.962Z,30.32
2022-12-07T09:05:16.781Z,30.63
2022-12-07T09:08:14.048Z,29.53
2022-12-07T09:09:13.993Z,29.50
2022-12-07T09:10:14.006Z,30.16
2022-12-07T09:12:13.966Z,28.74
2022-12-07T09:15:14.004Z,29.35
2022-12-07T09:16:14.093Z,29.94
2022-12-07T09:17:14.021Z,30.70
2022-12-07T09:18:13.985Z,31.20
2022-12-07T09:19:14.012Z,34.17
2022-12-07T09:20:14.016Z,32.06
2022-12-07T09:21:14.004Z,31.55
2022-12-07T09:22:14.011Z,30.33
2022-12-07T09:23:17.174Z,32.91
2022-12-07T09:24:13.981Z,31.73
2022-12-07T09:25:13.965Z,31.20
2022-12-07T09:26:13.980Z,29.77
2022-12-07T09:28:14.015Z,30.90
2022-12-07T09:29:13.981Z,32.18
2022-12-07T09:30:14.019Z,29.99
2022-12-07T09:31:23.371Z,30.96
2022-12-07T09:32:14.053Z,29.10
2022-12-07T09:34:14.077Z,31.66
2022-12-07T09:35:14.031Z,32.67
2022-12-07T09:36:13.991Z,32.60
2022-12-07T09:37:14.055Z,31.14
2022-12-07T09:38:14.063Z,29.50
2022-12-07T09:39:14.052Z,29.07
2022-12-07T09:41:14.048Z,28.46
2022-12-07T09:42:14.055Z,29.87
2022-12-07T09:43:14.091Z,32.44
2022-12-07T09:44:14.059Z,29.90
2022-12-07T09:45:14.064Z,30.08
2022-12-07T09:47:14.018Z,30.38
2022-12-07T09:48:14.077Z,29.31
2022-12-07T09:49:14.027Z,28.66
2022-12-07T09:50:14.065Z,30.03
2022-12-07T09:53:14.067Z,29.81
2022-12-07T09:54:14.051Z,27.73
2022-12-07T09:55:14.099Z,28.28
2022-12-07T09:56:14.082Z,28.34
2022-12-07T09:57:14.090Z,29.53
2022-12-07T09:58:14.079Z,29.62
2022-12-07T09:59:14.044Z,30.80
2022-12-07T10:00:17.425Z,27.92
2022-12-07T10:02:14.103Z,29.16
2022-12-07T10:03:14.071Z,28.58
2022-12-07T10:04:14.310Z,28.71
2022-12-07T10:05:17.664Z,28.01
2022-12-07T10:06:14.131Z,28.99
2022-12-07T10:07:14.136Z,27.97
2022-12-07T10:08:14.223Z,29.06
2022-12-07T10:09:14.155Z,29.09
2022-12-07T10:10:14.121Z,27.02
2022-12-07T10:13:14.130Z,27.72
2022-12-07T10:14:14.143Z,27.94
2022-12-07T10:15:14.093Z,26.14
2022-12-07T10:16:14.184Z,26.65
2022-12-07T10:18:14.091Z,23.85
2022-12-07T10:19:14.171Z,24.05
2022-12-07T10:20:14.112Z,23.60
2022-12-07T10:21:14.154Z,23.43
2022-12-07T10:22:14.162Z,24.32
2022-12-07T10:23:14.122Z,24.45
2022-12-07T10:24:14.161Z,24.55
2022-12-07T10:25:14.158Z,22.92
2022-12-07T10:26:14.208Z,25.46
2022-12-07T10:27:14.122Z,25.44
2022-12-07T10:28:14.155Z,24.60
2022-12-07T10:29:14.190Z,26.71
2022-12-07T10:30:14.179Z,27.36
2022-12-07T10:31:14.227Z,24.69
2022-12-07T10:32:14.145Z,25.39
2022-12-07T10:33:14.169Z,25.46
2022-12-07T10:34:14.174Z,25.36
2022-12-07T10:35:14.144Z,21.74
2022-12-07T10:36:14.178Z,24.12
2022-12-07T10:38:14.190Z,24.75
2022-12-07T10:39:14.173Z,24.21
2022-12-07T10:40:14.164Z,24.91
2022-12-07T10:41:14.216Z,24.08
2022-12-07T10:42:14.188Z,25.17
2022-12-07T10:43:14.197Z,25.12
2022-12-07T10:44:14.209Z,24.24
2022-12-07T10:45:14.216Z,22.90
2022-12-07T10:46:15.082Z,25.98
2022-12-07T10:47:14.308Z,26.88
2022-12-07T10:48:14.165Z,24.30
2022-12-07T10:49:14.240Z,23.12
2022-12-07T10:50:14.217Z,24.92
2022-12-07T10:51:14.180Z,25.85
2022-12-07T10:52:14.259Z,25.46
2022-12-07T10:53:14.210Z,24.58
2022-12-07T10:54:14.245Z,23.68
2022-12-07T10:55:14.241Z,23.76
2022-12-07T10:56:14.241Z,25.46
2022-12-07T10:58:14.195Z,24.44
2022-12-07T10:59:14.230Z,22.88
2022-12-07T11:00:14.238Z,25.36
2022-12-07T11:01:14.305Z,26.10
2022-12-07T11:03:14.246Z,24.89
2022-12-07T11:04:14.222Z,26.58
2022-12-07T11:05:14.215Z,24.08
2022-12-07T11:06:14.209Z,24.33
2022-12-07T11:08:14.294Z,23.29
2022-12-07T11:11:14.310Z,24.52
2022-12-07T11:12:14.273Z,25.91
2022-12-07T11:17:14.283Z,24.96
2022-12-07T11:18:14.230Z,30.08
2022-12-07T11:21:14.238Z,25.71
2022-12-07T11:22:14.244Z,27.05
2022-12-07T11:23:14.313Z,24.43
2022-12-07T11:24:14.287Z,24.24
2022-12-07T11:25:14.310Z,24.32
2022-12-07T11:26:14.333Z,21.61
2022-12-07T11:27:14.311Z,21.82
2022-12-07T11:28:14.265Z,23.58
2022-12-07T11:29:14.299Z,23.25
2022-12-07T11:31:14.366Z,23.25
2022-12-07T11:32:14.280Z,23.01
2022-12-07T11:35:14.347Z,22.78
2022-12-07T11:36:14.281Z,25.38
2022-12-07T11:37:14.311Z,24.44
2022-12-07T11:38:14.366Z,22.45
2022-12-07T11:40:14.325Z,23.79
2022-12-07T11:41:14.636Z,23.24
2022-12-07T11:42:14.298Z,21.80
2022-12-07T11:44:14.302Z,21.78
2022-12-07T11:47:14.399Z,20.75
2022-12-07T11:48:14.332Z,20.73
2022-12-07T11:49:14.312Z,22.37
2022-12-07T11:50:14.318Z,21.06
2022-12-07T11:51:18.135Z,19.29
2022-12-07T11:52:14.361Z,18.13
2022-12-07T11:53:14.415Z,21.18
2022-12-07T11:54:14.336Z,20.10
2022-12-07T11:56:14.395Z,19.30
2022-12-07T11:58:14.383Z,20.48
2022-12-07T11:59:14.407Z,22.90
2022-12-07T12:00:14.343Z,20.43
2022-12-07T12:03:14.427Z,18.65
2022-12-07T12:05:14.385Z,19.56
2022-12-07T12:06:14.395Z,18.75
2022-12-07T12:09:40.408Z,18.04
2022-12-07T12:10:14.466Z,18.58
2022-12-07T12:11:14.369Z,18.82
2022-12-07T12:14:35.595Z,18.11
2022-12-07T12:15:14.379Z,19.17
2022-12-07T12:16:14.421Z,18.69
2022-12-07T12:17:14.441Z,18.15
2022-12-07T12:20:14.469Z,18.12
2022-12-07T12:22:14.446Z,18.81
2022-12-07T12:23:14.422Z,19.24
2022-12-07T12:24:14.439Z,18.98
2022-12-07T12:25:14.440Z,18.86
2022-12-07T12:26:14.584Z,19.57
2022-12-07T12:27:14.437Z,18.79
2022-12-07T12:28:18.378Z,16.37
2022-12-07T12:29:14.397Z,18.21
2022-12-07T12:30:14.432Z,17.91
2022-12-07T12:31:14.405Z,18.75
2022-12-07T12:33:14.446Z,17.18
2022-12-07T12:34:14.431Z,16.94
2022-12-07T12:35:14.496Z,17.94
2022-12-07T12:37:14.457Z,18.07
2022-12-07T12:38:14.432Z,18.31
2022-12-07T12:39:14.700Z,16.89
2022-12-07T12:40:14.483Z,15.43
2022-12-07T12:41:14.469Z,16.09
2022-12-07T12:42:14.480Z,16.08
2022-12-07T12:44:14.504Z,16.38
2022-12-07T12:45:14.479Z,15.57
2022-12-07T12:47:14.479Z,17.41
2022-12-07T12:48:14.461Z,17.36
2022-12-07T12:49:14.460Z,16.44
2022-12-07T12:50:14.506Z,17.33
2022-12-07T12:51:14.460Z,18.05
2022-12-07T12:52:14.546Z,18.43
2022-12-07T12:53:14.449Z,18.66
2022-12-07T12:54:14.467Z,17.99
2022-12-07T12:55:14.512Z,17.88
2022-12-07T12:56:14.489Z,17.34
2022-12-07T12:57:14.523Z,17.97
2022-12-07T12:58:14.458Z,21.12
2022-12-07T12:59:14.489Z,18.95
2022-12-07T13:00:14.562Z,17.47
2022-12-07T13:01:14.534Z,17.97
2022-12-07T13:02:14.506Z,16.07
2022-12-07T13:03:14.561Z,16.64
2022-12-07T13:04:14.550Z,16.06
2022-12-07T13:05:18.576Z,16.55
2022-12-07T13:06:14.519Z,15.64
2022-12-07T13:07:14.523Z,15.84
2022-12-07T13:08:14.680Z,15.51
2022-12-07T13:10:14.555Z,15.15
2022-12-07T13:11:14.524Z,14.71
2022-12-07T13:12:14.520Z,15.82
2022-12-07T13:13:14.553Z,17.96
2022-12-07T13:15:14.525Z,15.12
2022-12-07T13:16:14.568Z,16.08
2022-12-07T13:17:14.525Z,16.86
2022-12-07T13:18:14.629Z,16.06
2022-12-07T13:19:14.571Z,16.64
2022-12-07T13:20:17.627Z,16.34
2022-12-07T13:22:14.583Z,13.24
2022-12-07T13:23:14.585Z,14.43
2022-12-07T13:24:14.549Z,14.86
2022-12-07T13:25:14.536Z,14.38
2022-12-07T13:26:17.348Z,14.75
2022-12-07T13:27:14.561Z,14.78
2022-12-07T13:28:14.640Z,14.11
2022-12-07T13:29:14.583Z,14.14
2022-12-07T13:30:14.568Z,12.57
2022-12-07T13:31:14.667Z,14.12
2022-12-07T13:32:14.602Z,13.09
2022-12-07T13:33:14.620Z,13.25
2022-12-07T13:34:14.606Z,13.48
2022-12-07T13:35:14.616Z,13.08
2022-12-07T13:36:14.629Z,14.21
2022-12-07T13:38:14.615Z,13.72
2022-12-07T13:39:14.622Z,13.15
2022-12-07T13:40:14.642Z,13.25
2022-12-07T13:41:14.624Z,12.56
2022-12-07T13:42:18.821Z,12.56
2022-12-07T13:43:14.585Z,12.84
2022-12-07T13:44:14.618Z,12.92
2022-12-07T13:45:14.621Z,13.10
2022-12-07T13:46:14.794Z,14.40
2022-12-07T13:47:14.631Z,13.59
2022-12-07T13:48:14.662Z,12.15
2022-12-07T13:49:14.692Z,12.52
2022-12-07T13:50:14.635Z,13.74
2022-12-07T13:51:14.630Z,11.72
2022-12-07T13:52:14.614Z,13.43
2022-12-07T13:53:14.670Z,13.16
2022-12-07T13:54:14.680Z,12.74
2022-12-07T13:55:14.657Z,13.97
2022-12-07T13:56:14.662Z,14.17
2022-12-07T13:57:14.659Z,14.14
2022-12-07T13:58:14.648Z,14.13
2022-12-07T13:59:14.689Z,14.13
2022-12-07T14:00:14.648Z,13.27
2022-12-07T14:01:14.756Z,13.06
2022-12-07T14:02:15.682Z,12.98
2022-12-07T14:03:14.752Z,13.74
2022-12-07T14:04:14.675Z,13.20
2022-12-07T14:05:14.673Z,14.00
2022-12-07T14:06:14.638Z,11.52
2022-12-07T14:08:14.720Z,9.73
2022-12-07T14:10:14.681Z,8.88
2022-12-07T14:11:14.696Z,9.06
2022-12-07T14:12:14.697Z,8.80
2022-12-07T14:13:14.677Z,9.07
2022-12-07T14:14:14.661Z,10.83
2022-12-07T14:15:14.698Z,11.38
2022-12-07T14:16:14.692Z,11.53
2022-12-07T14:17:14.804Z,11.10
2022-12-07T14:18:14.705Z,11.70
2022-12-07T14:19:19.027Z,13.78
2022-12-07T14:21:14.673Z,12.27
2022-12-07T14:23:14.681Z,10.89
2022-12-07T14:24:14.724Z,11.57
2022-12-07T14:25:14.762Z,9.67
2022-12-07T14:26:14.702Z,10.06
2022-12-07T14:28:14.691Z,10.89
2022-12-07T14:29:14.706Z,10.80
2022-12-07T14:31:22.660Z,10.15
2022-12-07T14:32:14.777Z,9.90
2022-12-07T14:33:14.730Z,8.76
2022-12-07T14:35:14.784Z,8.16
2022-12-07T14:36:14.733Z,8.00
2022-12-07T14:37:14.815Z,10.09
2022-12-07T14:38:14.766Z,10.28
2022-12-07T14:39:14.772Z,10.99
2022-12-07T14:40:14.803Z,10.76
2022-12-07T14:41:14.736Z,10.68
2022-12-07T14:42:14.761Z,9.77
2022-12-07T14:43:14.736Z,8.96
2022-12-07T14:44:23.897Z,10.66
2022-12-07T14:45:14.780Z,10.74
2022-12-07T14:46:14.844Z,12.43
2022-12-07T14:50:14.840Z,13.06
2022-12-07T14:54:14.765Z,11.67
2022-12-07T14:55:14.787Z,11.25
2022-12-07T14:56:19.290Z,11.53
2022-12-07T14:57:14.795Z,10.21
2022-12-07T14:58:14.833Z,10.67
2022-12-07T14:59:14.767Z,10.48
2022-12-07T15:00:14.847Z,11.78
2022-12-07T15:01:14.814Z,11.63
2022-12-07T15:02:14.816Z,11.13
2022-12-07T15:03:14.860Z,11.63
2022-12-07T15:04:15.026Z,12.69
2022-12-07T15:05:16.598Z,13.34
2022-12-07T15:06:14.805Z,13.89
2022-12-07T15:07:14.819Z,13.48
2022-12-07T15:08:14.789Z,13.76
2022-12-07T15:09:14.798Z,14.06
2022-12-07T15:10:17.054Z,14.19
2022-12-07T15:11:14.849Z,14.98
2022-12-07T15:12:14.877Z,15.79
2022-12-07T15:13:14.841Z,13.76
2022-12-07T15:14:14.812Z,15.58
2022-12-07T15:15:14.901Z,16.31
2022-12-07T15:16:14.936Z,14.15
2022-12-07T15:17:27.709Z,13.75
2022-12-07T15:18:14.815Z,14.38
2022-12-07T15:19:28.459Z,14.96
2022-12-07T15:20:14.855Z,14.52
2022-12-07T15:21:14.861Z,14.75
2022-12-07T15:22:14.860Z,14.88
2022-12-07T15:23:14.874Z,14.40
2022-12-07T15:24:14.907Z,14.49
2022-12-07T15:25:14.876Z,16.01
2022-12-07T15:26:14.820Z,14.57
2022-12-07T15:27:14.859Z,14.73
2022-12-07T15:29:19.491Z,15.82
2022-12-07T15:30:14.899Z,14.60
2022-12-07T15:31:46.568Z,15.74
2022-12-07T15:35:14.893Z,14.51
2022-12-07T15:36:14.915Z,15.05
2022-12-07T15:37:14.909Z,14.67
2022-12-07T15:38:14.934Z,14.60
2022-12-07T15:39:15.267Z,16.22
2022-12-07T15:40:14.874Z,16.02
2022-12-07T15:41:14.905Z,13.50
2022-12-07T15:42:14.872Z,13.30
2022-12-07T15:43:14.939Z,13.19
2022-12-07T15:44:14.874Z,14.47
2022-12-07T15:45:14.895Z,14.23
2022-12-07T15:47:14.908Z,14.17
2022-12-07T15:48:29.166Z,13.73
2022-12-07T15:49:14.888Z,13.34
2022-12-07T15:50:14.918Z,14.28
2022-12-07T15:51:14.953Z,13.98
2022-12-07T15:52:14.932Z,12.73
2022-12-07T15:53:14.931Z,13.13
2022-12-07T15:54:14.902Z,13.92
2022-12-07T15:55:14.944Z,13.88
2022-12-07T15:56:14.961Z,12.70
2022-12-07T15:57:14.925Z,13.64
2022-12-07T15:58:14.925Z,14.29
2022-12-07T15:59:14.959Z,13.13
2022-12-07T16:00:14.922Z,12.89
2022-12-07T16:01:15.028Z,13.42
2022-12-07T16:02:15.020Z,12.49
2022-12-07T16:05:14.926Z,13.94
2022-12-07T16:06:14.959Z,12.74
2022-12-07T16:07:14.947Z,14.17
2022-12-07T16:08:14.932Z,14.66
2022-12-07T16:09:14.964Z,13.97
2022-12-07T16:10:19.769Z,14.43
2022-12-07T16:11:15.008Z,14.86
2022-12-07T16:12:14.960Z,13.58
2022-12-07T16:13:14.947Z,14.27
2022-12-07T16:14:15.024Z,15.66
2022-12-07T16:15:14.958Z,15.41
2022-12-07T16:16:15.050Z,14.43
2022-12-07T16:17:15.001Z,16.17
2022-12-07T16:18:15.004Z,14.98
2022-12-07T16:19:14.998Z,14.66
2022-12-07T16:20:14.964Z,15.43
2022-12-07T16:21:15.903Z,15.99
2022-12-07T16:22:15.016Z,14.89
2022-12-07T16:23:15.002Z,14.96
2022-12-07T16:24:15.060Z,13.72
2022-12-07T16:25:14.982Z,13.71
2022-12-07T16:26:15.001Z,15.41
2022-12-07T16:27:15.002Z,12.37
2022-12-07T16:28:14.989Z,14.88
2022-12-07T16:29:15.029Z,15.08
2022-12-07T16:30:14.986Z,15.13
2022-12-07T16:31:15.093Z,15.78
2022-12-07T16:32:15.025Z,14.55
2022-12-07T16:33:14.978Z,16.06
2022-12-07T16:34:15.052Z,16.75
2022-12-07T16:35:15.008Z,16.22
2022-12-07T16:36:15.319Z,16.13
2022-12-07T16:37:15.035Z,16.21
2022-12-07T16:38:15.024Z,16.17
2022-12-07T16:39:15.101Z,16.26